»·PEaware :: N6182G KAVX-KSAN

N6182G :: KAVX-KSAN

FLIGHT INFORMATION

Flight Status: Arrived
Operator: Privately registered:
United States
More flights under this callsign
Pilot: Paul A. (20189)
Aircraft: CESSNA 182 SKYLANE
(C182)
More flights by this aircraft type
Origin: KAVX Catalina
United States
Destination: KSAN San Diego Intl-Lindbergh
United States
More flights between these airports :: More routes between these airports
Route: +SXC V208 OCN V23 MZB
File this flight plan on PilotEdge
Remarks: i8
Altitude:
(Current/Filed)
7,000ft
Speed:
(Current/Filed)
120kts
Departed: 01-Oct-18 04:25 PM
Arrived: 01-Oct-18 05:25 PM
Distance/Time
Traveled:
74nm/0:59
Distance/Time
To Go:
Arrived

Flight Plot

Page will automatically refresh every two minutes.


Map Options




Map Legend


Flown Route
Filed Route
Departure Airport
Arrival Airport
Navaid (VOR, NDB)
Fix

Horizontal Profiles

Position Reports

Time Latitude Longitude Heading Altitude Ground
Speed
01-Oct-18 16:17 33.403229 -118.415545 324 1605ft 0kts
01-Oct-18 16:18 33.403230 -118.415546 324 1605ft 0kts
01-Oct-18 16:19 33.403231 -118.415547 324 1605ft 0kts
01-Oct-18 16:20 33.403231 -118.415547 324 1605ft 0kts
01-Oct-18 16:21 33.403232 -118.415548 324 1605ft 0kts
01-Oct-18 16:22 33.403233 -118.415549 324 1605ft 0kts
01-Oct-18 16:23 33.403234 -118.415550 324 1605ft 0kts
01-Oct-18 16:24 33.403235 -118.415550 324 1605ft 0kts
01-Oct-18 16:25 33.405075 -118.414955 49 1605ft 6kts
01-Oct-18 16:26 33.407175 -118.411587 334 1605ft 0kts
01-Oct-18 16:27 33.402620 -118.421452 241 1924ft 61kts
01-Oct-18 16:28 33.389180 -118.442382 232 2754ft 93kts
01-Oct-18 16:29 33.368927 -118.466158 180 3540ft 124kts
01-Oct-18 16:30 33.366321 -118.434285 55 4304ft 122kts
01-Oct-18 16:31 33.372158 -118.395038 100 4980ft 134kts
01-Oct-18 16:32 33.365845 -118.349176 100 4993ft 144kts
01-Oct-18 16:33 33.360171 -118.305898 100 4997ft 123kts
01-Oct-18 16:34 33.354576 -118.263165 100 4996ft 135kts
01-Oct-18 16:35 33.348736 -118.218717 100 4979ft 134kts
01-Oct-18 16:36 33.343422 -118.177962 100 5627ft 116kts
01-Oct-18 16:37 33.338402 -118.139808 101 6316ft 119kts
01-Oct-18 16:38 33.333130 -118.100065 101 6927ft 121kts
01-Oct-18 16:39 33.327344 -118.056937 101 7028ft 136kts
01-Oct-18 16:40 33.321304 -118.011614 101 7035ft 139kts
01-Oct-18 16:41 33.315169 -117.965649 100 7026ft 140kts
01-Oct-18 16:42 33.308954 -117.919263 100 7040ft 142kts
01-Oct-18 16:43 33.302672 -117.872490 100 7038ft 143kts
01-Oct-18 16:44 33.296332 -117.825423 100 7041ft 143kts
01-Oct-18 16:45 33.289982 -117.778503 101 7040ft 142kts
01-Oct-18 16:46 33.283524 -117.731720 102 7040ft 142kts
01-Oct-18 16:47 33.276408 -117.685089 102 7037ft 142kts
01-Oct-18 16:48 33.269334 -117.638467 102 7037ft 142kts
01-Oct-18 16:49 33.262289 -117.591926 102 7037ft 142kts
01-Oct-18 16:50 33.255934 -117.545208 100 7037ft 142kts
01-Oct-18 16:51 33.250410 -117.498268 100 7038ft 142kts
01-Oct-18 16:52 33.244711 -117.451350 100 7041ft 142kts
01-Oct-18 16:53 33.227945 -117.412145 157 7036ft 140kts
01-Oct-18 16:54 33.191267 -117.396751 160 7036ft 139kts
01-Oct-18 16:55 33.154545 -117.381432 160 7038ft 139kts
01-Oct-18 16:56 33.117907 -117.366024 160 7049ft 138kts
01-Oct-18 16:57 33.083088 -117.351396 160 7043ft 129kts
01-Oct-18 16:58 33.049433 -117.337261 160 7048ft 127kts
01-Oct-18 16:59 33.015065 -117.322849 160 6606ft 131kts
01-Oct-18 17:00 32.981721 -117.308880 160 5869ft 132kts
01-Oct-18 17:01 32.946779 -117.294242 160 5083ft 133kts
01-Oct-18 17:02 32.913053 -117.280087 160 5015ft 131kts
01-Oct-18 17:03 32.879056 -117.265877 160 4996ft 123kts
01-Oct-18 17:04 32.847334 -117.252611 160 5006ft 119kts
01-Oct-18 17:05 32.816727 -117.239817 158 5003ft 114kts
01-Oct-18 17:06 32.805130 -117.205335 103 5006ft 123kts
01-Oct-18 17:07 32.798736 -117.167097 102 4995ft 114kts
01-Oct-18 17:08 32.792566 -117.130477 102 5005ft 113kts
01-Oct-18 17:09 32.787372 -117.099733 103 5005ft 115kts
01-Oct-18 17:10 32.780130 -117.056188 102 4997ft 115kts
01-Oct-18 17:11 32.774834 -117.024812 102 4990ft 116kts
01-Oct-18 17:12 32.767523 -116.981012 103 4985ft 115kts
01-Oct-18 17:13 32.761177 -116.943818 102 5000ft 113kts
01-Oct-18 17:14 32.755818 -116.913190 102 5003ft 113kts
01-Oct-18 17:15 32.748147 -116.870375 111 5003ft 113kts
01-Oct-18 17:16 32.724818 -116.866206 192 5021ft 115kts
01-Oct-18 17:17 32.692379 -116.877665 213 4243ft 124kts
01-Oct-18 17:18 32.680504 -116.913871 253 3829ft 120kts
01-Oct-18 17:19 32.675557 -116.952245 282 3643ft 107kts
01-Oct-18 17:20 32.684745 -116.989177 286 3364ft 120kts
01-Oct-18 17:21 32.693197 -117.023573 285 2733ft 98kts
01-Oct-18 17:22 32.700467 -117.057331 286 2557ft 110kts
01-Oct-18 17:23 32.709769 -117.092718 288 1890ft 109kts
01-Oct-18 17:24 32.717616 -117.123751 285 1349ft 95kts
01-Oct-18 17:25 32.724405 -117.152395 287 619ft 84kts
01-Oct-18 17:26 32.730093 -117.175314 285 133ft 63kts
01-Oct-18 17:27 32.733859 -117.188147 14 18ft 10kts
01-Oct-18 17:28 32.733289 -117.183791 105 18ft 27kts
01-Oct-18 17:29 32.733998 -117.179771 324 18ft 0kts
01-Oct-18 17:30 32.733999 -117.179771 324 18ft 0kts

Navigation Log

Ident Type
1. KAVX Airport
2. SXC Navaid
3. AVOLS Fix
4. PACIF Fix
5. HUBRD Fix
6. OCN Navaid
7. HURSI Fix
8. CARIF Fix
9. MZB Navaid
10. KSAN Airport